Time;durP1;ratioP1;P1;durP2;ratioP2;P2;SDS_P1;SDS_P2;PMS_P1;PMS_P2;Temp;Humidity;BMP_temperature;BMP_pressure;BME280_temperature;BME280_humidity;BME280_pressure;Samples;Min_cycle;Max_cycle;Signal;HPM_P1;HPM_P2
2021/05/28 00:02:10;;;;;;;8.38;5.63;;;8.70;94.00;;;;;;5025049;28;20028;-86
2021/05/28 00:04:35;;;;;;;8.70;5.25;;;8.60;94.10;;;;;;5020982;28;20044;-86
2021/05/28 00:07:01;;;;;;;7.97;5.20;;;8.60;94.40;;;;;;5027929;28;20036;-86
2021/05/28 00:09:27;;;;;;;12.57;5.95;;;8.60;94.20;;;;;;5027088;28;20026;-86
2021/05/28 00:11:53;;;;;;;8.07;5.53;;;8.50;94.10;;;;;;5023772;28;20443;-86
2021/05/28 00:14:19;;;;;;;13.52;6.85;;;8.40;94.40;;;;;;5026516;28;20061;-87
2021/05/28 00:16:45;;;;;;;7.32;5.00;;;8.40;94.40;;;;;;5022860;28;20022;-86
2021/05/28 00:19:10;;;;;;;9.45;6.22;;;8.40;94.20;;;;;;5028291;28;20485;-86
2021/05/28 00:21:36;;;;;;;9.02;5.78;;;8.40;94.50;;;;;;5010214;28;20038;-86
2021/05/28 00:24:03;;;;;;;7.18;5.07;;;8.30;94.60;;;;;;5025979;28;20025;-87
2021/05/28 00:26:29;;;;;;;7.25;5.22;;;8.40;94.60;;;;;;5026675;28;20022;-86
2021/05/28 00:28:54;;;;;;;11.85;5.35;;;8.30;94.60;;;;;;5022127;28;20028;-86
2021/05/28 00:31:20;;;;;;;7.65;5.47;;;8.30;94.60;;;;;;5025179;28;20489;-86
2021/05/28 00:33:47;;;;;;;7.28;5.50;;;8.40;94.60;;;;;;5029569;28;20037;-86
2021/05/28 00:36:13;;;;;;;9.98;6.63;;;8.30;94.80;;;;;;5027533;28;20029;-85
2021/05/28 00:38:39;;;;;;;10.10;6.28;;;8.20;95.10;;;;;;5024652;28;20029;-86
2021/05/28 00:41:05;;;;;;;11.02;6.55;;;8.10;94.90;;;;;;5024079;28;20385;-86
2021/05/28 00:43:30;;;;;;;6.80;5.53;;;8.10;95.10;;;;;;5024820;28;20418;-86
2021/05/28 00:45:56;;;;;;;8.77;6.07;;;8.10;94.80;;;;;;5028759;28;20038;-85
2021/05/28 00:48:22;;;;;;;7.75;6.20;;;8.10;94.90;;;;;;5011334;28;20496;-86
2021/05/28 00:50:48;;;;;;;10.27;6.55;;;8.00;94.80;;;;;;5031671;28;20034;-86
2021/05/28 00:53:15;;;;;;;10.38;6.63;;;8.00;95.00;;;;;;5025227;28;20079;-84
2021/05/28 00:55:41;;;;;;;11.05;6.18;;;7.90;95.00;;;;;;5012886;28;20017;-86
2021/05/28 00:58:07;;;;;;;11.27;7.15;;;8.00;95.20;;;;;;5029950;28;20028;-86
2021/05/28 01:00:33;;;;;;;7.03;6.00;;;7.90;95.30;;;;;;5013124;28;20358;-86
2021/05/28 01:02:59;;;;;;;10.50;6.75;;;7.80;95.30;;;;;;5013968;28;20048;-85
2021/05/28 01:05:25;;;;;;;12.02;6.95;;;7.80;95.80;;;;;;5013507;28;20025;-86
2021/05/28 01:07:51;;;;;;;9.25;6.22;;;7.70;95.80;;;;;;5030285;28;20224;-86
2021/05/28 01:10:16;;;;;;;11.23;7.05;;;7.60;95.90;;;;;;5006203;28;20026;-86
2021/05/28 01:12:42;;;;;;;8.50;6.20;;;7.70;95.70;;;;;;5032489;28;20103;-86
2021/05/28 01:15:09;;;;;;;11.98;6.57;;;7.70;95.50;;;;;;5029061;28;20021;-86
2021/05/28 01:17:35;;;;;;;7.80;5.78;;;7.70;95.30;;;;;;5030887;28;20079;-86
2021/05/28 01:20:03;;;;;;;8.10;5.45;;;7.70;95.20;;;;;;5022847;28;20045;-86
2021/05/28 01:22:29;;;;;;;8.75;5.82;;;7.70;95.40;;;;;;5015796;28;20381;-86
2021/05/28 01:24:54;;;;;;;10.40;6.30;;;7.70;95.40;;;;;;5031174;28;20037;-86
2021/05/28 01:27:21;;;;;;;11.18;6.15;;;7.70;95.40;;;;;;5030821;28;20107;-86
2021/05/28 01:29:47;;;;;;;10.32;6.50;;;7.70;95.50;;;;;;5030807;28;20483;-86
2021/05/28 01:32:15;;;;;;;9.73;6.53;;;7.60;95.40;;;;;;5013429;28;20045;-86
2021/05/28 01:34:40;;;;;;;10.10;6.25;;;7.50;95.40;;;;;;5022393;28;20022;-85
2021/05/28 01:37:06;;;;;;;11.90;6.32;;;7.50;95.50;;;;;;5027784;28;20033;-86
2021/05/28 01:39:32;;;;;;;8.23;5.68;;;7.60;95.40;;;;;;5028505;28;20030;-86
2021/05/28 01:41:58;;;;;;;8.75;5.63;;;7.60;95.60;;;;;;5030318;28;20042;-86
2021/05/28 01:44:23;;;;;;;8.68;6.05;;;7.60;95.50;;;;;;5024862;28;20072;-85
2021/05/28 01:46:50;;;;;;;12.23;6.40;;;7.70;95.60;;;;;;5028974;28;20029;-85
2021/05/28 01:49:16;;;;;;;10.70;6.90;;;7.60;95.80;;;;;;5015801;28;20470;-86
2021/05/28 01:51:50;;;;;;;10.65;7.22;;;7.50;96.90;;;;;;5029517;28;20155;-85
2021/05/28 01:54:16;;;;;;;9.40;7.40;;;7.50;96.60;;;;;;5029114;28;20044;-86
2021/05/28 01:56:45;;;;;;;12.85;7.35;;;7.50;97.00;;;;;;5013530;28;20033;-86
2021/05/28 01:59:22;;;;;;;11.27;7.18;;;7.50;96.80;;;;;;5031069;28;20024;-87
2021/05/28 02:01:48;;;;;;;10.90;7.00;;;7.60;96.80;;;;;;5019413;28;20511;-86
2021/05/28 02:04:13;;;;;;;10.23;6.95;;;7.60;96.80;;;;;;5013234;28;20033;-86
2021/05/28 02:06:39;;;;;;;9.40;6.38;;;7.50;96.60;;;;;;5022106;28;20105;-86
2021/05/28 02:09:05;;;;;;;10.10;5.95;;;7.50;96.50;;;;;;5023078;28;20025;-85
2021/05/28 02:11:30;;;;;;;9.38;6.25;;;7.50;96.30;;;;;;5028284;28;20032;-85
2021/05/28 02:13:56;;;;;;;12.20;6.95;;;7.50;96.20;;;;;;5019039;28;20029;-85
2021/05/28 02:16:22;;;;;;;9.52;6.28;;;7.50;96.20;;;;;;5011287;28;20026;-84
2021/05/28 02:18:47;;;;;;;13.38;7.88;;;7.60;96.30;;;;;;5012425;28;20043;-86
2021/05/28 02:21:13;;;;;;;11.02;6.50;;;7.50;95.90;;;;;;5027582;28;20045;-86
2021/05/28 02:23:39;;;;;;;9.13;6.38;;;7.50;96.00;;;;;;5030465;28;20025;-86
2021/05/28 02:26:04;;;;;;;10.82;7.57;;;7.50;96.40;;;;;;5029153;28;20067;-87
2021/05/28 02:28:30;;;;;;;12.80;6.50;;;7.50;96.40;;;;;;5009065;28;20034;-86
2021/05/28 02:30:56;;;;;;;11.88;7.70;;;7.50;96.30;;;;;;5028948;28;20041;-86
2021/05/28 02:33:21;;;;;;;9.13;7.30;;;7.50;96.50;;;;;;5023567;28;20492;-86
2021/05/28 02:35:47;;;;;;;10.00;7.47;;;7.40;96.50;;;;;;5028789;28;20049;-87
2021/05/28 02:38:13;;;;;;;11.13;7.30;;;7.50;96.80;;;;;;5026406;28;20032;-86
2021/05/28 02:40:38;;;;;;;10.05;7.20;;;7.40;96.70;;;;;;5029857;28;20044;-86
2021/05/28 02:43:04;;;;;;;13.02;7.68;;;7.50;96.80;;;;;;5029380;28;20057;-86
2021/05/28 02:45:29;;;;;;;10.73;8.27;;;7.50;96.90;;;;;;5030095;28;20105;-85
2021/05/28 02:47:57;;;;;;;12.05;7.78;;;7.50;96.80;;;;;;5029903;28;20049;-86
2021/05/28 02:50:23;;;;;;;12.00;8.63;;;7.60;96.90;;;;;;5012245;28;20032;-86
2021/05/28 02:52:49;;;;;;;23.48;7.57;;;7.70;96.80;;;;;;5023979;28;20038;-85
2021/05/28 02:55:14;;;;;;;13.63;6.90;;;7.70;96.60;;;;;;5029954;28;20060;-85
2021/05/28 02:57:40;;;;;;;15.43;7.90;;;7.70;96.40;;;;;;5031791;28;20819;-86
2021/05/28 03:00:06;;;;;;;23.23;7.40;;;7.80;96.30;;;;;;5010460;28;20109;-86
2021/05/28 03:02:32;;;;;;;8.68;7.22;;;7.90;96.00;;;;;;5026779;28;20412;-86
2021/05/28 03:04:58;;;;;;;12.35;6.78;;;8.00;95.70;;;;;;5005030;28;20025;-85
2021/05/28 03:07:23;;;;;;;13.80;7.47;;;8.10;95.40;;;;;;5028371;28;20032;-86
2021/05/28 03:09:49;;;;;;;11.93;7.53;;;8.10;95.40;;;;;;5027544;28;20022;-86
2021/05/28 03:12:15;;;;;;;8.35;6.15;;;8.20;95.30;;;;;;5023088;28;20042;-85
2021/05/28 03:14:42;;;;;;;8.88;6.15;;;8.30;95.00;;;;;;5026002;28;20026;-86
2021/05/28 03:17:08;;;;;;;10.10;6.82;;;8.30;94.70;;;;;;5027037;28;20029;-86
2021/05/28 03:19:42;;;;;;;8.82;7.03;;;8.50;94.80;;;;;;5026946;28;20029;-84
2021/05/28 03:24:40;;;;;;;10.50;6.03;;;9.10;93.50;;;;;;5027023;28;20045;-86
2021/05/28 03:27:06;;;;;;;9.35;6.07;;;9.30;93.00;;;;;;5027793;28;20033;-86
2021/05/28 03:29:31;;;;;;;11.45;6.30;;;9.20;93.20;;;;;;5024817;28;20029;-86
2021/05/28 03:31:57;;;;;;;8.60;6.68;;;9.20;92.80;;;;;;5026776;28;20045;-86
2021/05/28 03:34:23;;;;;;;10.95;6.18;;;9.40;92.70;;;;;;5027937;28;20033;-86
2021/05/28 03:36:50;;;;;;;11.27;7.32;;;9.70;92.90;;;;;;5029276;28;20029;-87
2021/05/28 03:39:16;;;;;;;11.15;6.78;;;9.90;92.20;;;;;;5029383;28;20125;-86
2021/05/28 03:41:41;;;;;;;9.40;6.82;;;10.00;92.30;;;;;;5026585;28;20443;-86
2021/05/28 03:44:07;;;;;;;10.18;6.93;;;10.10;92.20;;;;;;5027855;28;20032;-87
2021/05/28 03:46:33;;;;;;;10.52;6.93;;;10.30;92.90;;;;;;5027442;28;20038;-86
2021/05/28 03:48:59;;;;;;;11.52;6.72;;;10.40;92.60;;;;;;5029263;28;20052;-85
2021/05/28 03:51:24;;;;;;;11.57;6.85;;;10.40;93.00;;;;;;5028843;28;20021;-85
2021/05/28 03:53:50;;;;;;;12.93;6.75;;;10.70;93.30;;;;;;5028462;28;20049;-87
2021/05/28 03:56:16;;;;;;;8.77;6.03;;;11.40;93.30;;;;;;5026871;28;20479;-86
2021/05/28 03:58:43;;;;;;;8.63;6.82;;;12.30;92.30;;;;;;5015879;28;20049;-86
2021/05/28 04:01:09;;;;;;;10.85;6.85;;;13.40;90.50;;;;;;5029814;28;20101;-87
2021/05/28 04:03:35;;;;;;;7.88;6.70;;;14.50;87.50;;;;;;5029627;28;20029;-87
2021/05/28 04:06:01;;;;;;;11.80;7.35;;;15.00;84.80;;;;;;5027407;28;20035;-87
2021/05/28 04:08:26;;;;;;;9.50;7.20;;;15.40;84.00;;;;;;5028695;28;20392;-87
2021/05/28 04:10:52;;;;;;;15.48;8.63;;;15.60;85.10;;;;;;5026828;28;20042;-86
2021/05/28 04:13:17;;;;;;;12.35;7.38;;;15.60;84.20;;;;;;5027339;28;20037;-87
2021/05/28 04:15:43;;;;;;;9.57;7.47;;;15.60;84.60;;;;;;5030474;28;20026;-84
2021/05/28 04:18:09;;;;;;;11.40;7.70;;;15.90;84.80;;;;;;5029200;28;20029;-84
2021/05/28 04:20:37;;;;;;;13.35;7.65;;;16.00;84.20;;;;;;5027016;28;20124;-86
2021/05/28 04:23:02;;;;;;;11.30;7.00;;;15.90;84.90;;;;;;5015383;28;20480;-86
2021/05/28 04:25:28;;;;;;;10.15;7.47;;;15.50;87.00;;;;;;5031338;28;20108;-87
2021/05/28 04:27:54;;;;;;;9.32;8.05;;;15.30;88.00;;;;;;5026828;28;20437;-86
2021/05/28 04:30:23;;;;;;;11.02;8.32;;;15.10;88.80;;;;;;5034028;28;20117;-86
2021/05/28 04:32:53;;;;;;;14.53;7.80;;;15.10;90.10;;;;;;5029097;28;20059;-86
2021/05/28 04:35:19;;;;;;;8.98;7.32;;;15.50;88.70;;;;;;5029291;28;20026;-86
2021/05/28 04:37:44;;;;;;;9.73;8.00;;;15.60;88.10;;;;;;5019605;28;20025;-86
2021/05/28 04:40:10;;;;;;;10.52;7.53;;;15.50;88.60;;;;;;5032130;28;20076;-86
2021/05/28 04:42:36;;;;;;;10.32;7.63;;;15.40;88.90;;;;;;5034869;28;20354;-86
2021/05/28 04:45:04;;;;;;;8.35;7.03;;;15.20;89.20;;;;;;5029696;28;20036;-86
2021/05/28 04:47:32;;;;;;;9.90;7.00;;;15.00;89.40;;;;;;5030556;28;20481;-86
2021/05/28 04:50:01;;;;;;;9.50;7.15;;;14.70;90.50;;;;;;5032810;28;20037;-87
2021/05/28 04:52:26;;;;;;;9.27;7.10;;;14.50;90.60;;;;;;5029205;28;20460;-86
2021/05/28 04:54:52;;;;;;;8.73;7.18;;;14.40;91.40;;;;;;5032307;28;20061;-87
2021/05/28 04:57:18;;;;;;;8.88;7.13;;;14.30;91.70;;;;;;5032007;28;20029;-87
2021/05/28 04:59:43;;;;;;;7.28;6.55;;;14.10;91.40;;;;;;5031985;28;20473;-87
2021/05/28 05:02:09;;;;;;;8.57;6.80;;;14.10;92.00;;;;;;5028882;28;20053;-86
2021/05/28 05:04:35;;;;;;;9.98;6.63;;;14.00;92.50;;;;;;5030817;28;20068;-87
2021/05/28 05:07:00;;;;;;;7.43;6.50;;;14.00;92.60;;;;;;5031676;28;20022;-86
2021/05/28 05:09:26;;;;;;;9.20;6.00;;;13.90;92.30;;;;;;5032003;28;20480;-86
2021/05/28 05:11:52;;;;;;;9.05;6.00;;;13.90;92.30;;;;;;5030693;28;20029;-85
2021/05/28 05:14:18;;;;;;;8.25;6.70;;;13.80;92.40;;;;;;5029696;28;20496;-86
2021/05/28 05:16:43;;;;;;;8.48;7.00;;;13.80;92.10;;;;;;5028225;28;20022;-86
2021/05/28 05:19:09;;;;;;;7.82;6.03;;;13.90;92.40;;;;;;5028829;28;20029;-86
2021/05/28 05:21:35;;;;;;;8.02;6.10;;;13.90;92.40;;;;;;5030336;28;20041;-87
2021/05/28 05:24:00;;;;;;;6.60;5.90;;;13.90;92.10;;;;;;5031085;28;20484;-84
2021/05/28 05:26:26;;;;;;;8.00;5.82;;;13.90;92.20;;;;;;5026539;28;20026;-86
2021/05/28 05:28:52;;;;;;;7.35;6.10;;;14.00;92.00;;;;;;5029779;28;20022;-86
2021/05/28 05:31:18;;;;;;;7.35;5.28;;;14.00;91.60;;;;;;5028831;28;20120;-86
2021/05/28 05:33:43;;;;;;;7.25;5.78;;;14.10;91.80;;;;;;5032411;28;20112;-84
2021/05/28 05:36:09;;;;;;;7.60;5.78;;;14.10;91.80;;;;;;5030742;28;20032;-87
2021/05/28 05:38:35;;;;;;;8.25;5.90;;;14.10;92.00;;;;;;5028851;28;20029;-86
2021/05/28 05:41:00;;;;;;;6.05;5.45;;;14.10;91.40;;;;;;5031426;28;20029;-87
2021/05/28 05:43:26;;;;;;;6.97;5.70;;;14.10;91.40;;;;;;5029582;28;20389;-85
2021/05/28 05:45:52;;;;;;;8.90;6.25;;;14.10;91.40;;;;;;5031500;28;20068;-86
2021/05/28 05:48:17;;;;;;;10.25;6.28;;;14.20;91.60;;;;;;5030164;28;20405;-87
2021/05/28 05:50:43;;;;;;;10.93;6.57;;;14.20;91.90;;;;;;5028761;28;20056;-87
2021/05/28 05:53:09;;;;;;;10.13;6.20;;;14.30;91.80;;;;;;5012177;28;20030;-86
2021/05/28 05:55:35;;;;;;;9.07;6.60;;;14.40;91.80;;;;;;5012639;28;20828;-88
2021/05/28 05:58:01;;;;;;;7.30;6.13;;;14.50;91.70;;;;;;5015264;28;20492;-85
2021/05/28 06:00:26;;;;;;;13.10;6.35;;;14.60;91.50;;;;;;5013626;28;20041;-87
2021/05/28 06:02:52;;;;;;;9.88;6.35;;;14.70;91.30;;;;;;5029173;28;20017;-87
2021/05/28 06:05:18;;;;;;;10.00;6.82;;;14.70;91.30;;;;;;5004300;28;20033;-86
2021/05/28 06:07:45;;;;;;;13.13;6.68;;;14.80;91.00;;;;;;5023058;28;20028;-87
2021/05/28 06:10:12;;;;;;;8.77;6.68;;;14.80;90.80;;;;;;5028761;28;20081;-88
2021/05/28 06:12:38;;;;;;;10.85;6.47;;;14.90;90.70;;;;;;5031309;28;20049;-87
2021/05/28 06:15:05;;;;;;;8.57;5.85;;;15.00;91.00;;;;;;5028386;28;20095;-86
2021/05/28 06:17:31;;;;;;;8.60;5.82;;;15.10;90.60;;;;;;5026021;28;20026;-87
2021/05/28 06:19:56;;;;;;;8.38;6.68;;;15.10;90.00;;;;;;5029036;28;20048;-88
2021/05/28 06:22:22;;;;;;;9.25;6.28;;;15.40;90.00;;;;;;5028290;28;20136;-83
2021/05/28 06:24:52;;;;;;;9.75;5.97;;;15.40;88.90;;;;;;5013816;28;20017;-87
2021/05/28 06:27:18;;;;;;;10.55;6.18;;;15.60;89.00;;;;;;4998825;28;20033;-86
2021/05/28 06:29:44;;;;;;;6.40;4.90;;;15.80;88.10;;;;;;5023553;28;20029;-86
2021/05/28 06:32:09;;;;;;;6.65;3.85;;;15.80;87.10;;;;;;5018157;28;20036;-87
2021/05/28 06:34:35;;;;;;;7.82;4.93;;;16.00;86.20;;;;;;5020154;28;20100;-86
2021/05/28 06:37:01;;;;;;;5.68;4.53;;;16.30;86.00;;;;;;5020401;28;20038;-89
2021/05/28 06:39:27;;;;;;;4.53;3.78;;;16.50;85.00;;;;;;5028170;28;20033;-87
2021/05/28 06:41:54;;;;;;;5.25;3.97;;;16.70;84.20;;;;;;5028443;28;20057;-87
2021/05/28 06:44:24;;;;;;;6.45;3.95;;;16.90;84.50;;;;;;5026677;28;20118;-87
2021/05/28 06:46:54;;;;;;;7.90;3.53;;;17.10;82.50;;;;;;5029014;28;20076;-87
2021/05/28 06:49:20;;;;;;;4.82;3.53;;;17.20;80.20;;;;;;5018614;28;20050;-88
2021/05/28 06:51:46;;;;;;;3.15;2.45;;;17.20;78.70;;;;;;5028638;28;20510;-87
2021/05/28 06:54:13;;;;;;;3.42;3.13;;;17.40;80.70;;;;;;5021962;28;20029;-87
2021/05/28 06:56:39;;;;;;;5.78;2.70;;;17.50;80.60;;;;;;5027586;28;20024;-87
2021/05/28 06:59:09;;;;;;;4.05;2.55;;;17.50;77.50;;;;;;5028346;28;20033;-87
2021/05/28 07:01:35;;;;;;;8.02;3.80;;;17.60;77.70;;;;;;5027969;28;20030;-84
2021/05/28 07:04:02;;;;;;;4.60;3.65;;;17.60;78.90;;;;;;5026988;28;20033;-85
2021/05/28 07:06:29;;;;;;;7.45;3.50;;;17.60;79.10;;;;;;5020905;28;20049;-87
2021/05/28 07:08:55;;;;;;;6.03;3.38;;;17.60;79.00;;;;;;5027723;28;20028;-85
2021/05/28 07:11:22;;;;;;;4.25;3.42;;;17.60;79.60;;;;;;5024564;28;20065;-85
2021/05/28 07:13:47;;;;;;;5.10;2.75;;;17.50;78.00;;;;;;5013437;28;20091;-86
2021/05/28 07:16:13;;;;;;;4.80;3.35;;;17.60;78.40;;;;;;5020200;28;20033;-87
2021/05/28 07:18:39;;;;;;;4.78;3.15;;;17.40;77.50;;;;;;5018457;28;20036;-85
2021/05/28 07:21:05;;;;;;;7.50;4.18;;;17.50;78.60;;;;;;5018414;28;20146;-86
2021/05/28 07:23:31;;;;;;;5.55;3.38;;;17.30;79.00;;;;;;5015888;28;20045;-86
2021/05/28 07:25:59;;;;;;;8.15;3.80;;;17.40;80.30;;;;;;5022296;28;20026;-87
2021/05/28 07:28:26;;;;;;;6.40;2.92;;;17.40;80.80;;;;;;5013575;28;20488;-86
2021/05/28 07:30:51;;;;;;;3.33;2.33;;;17.20;79.00;;;;;;5021192;28;20026;-86
2021/05/28 07:33:17;;;;;;;5.72;2.70;;;17.30;79.80;;;;;;5018582;28;20037;-85
2021/05/28 07:35:43;;;;;;;6.60;2.88;;;17.40;78.40;;;;;;5020387;28;20598;-85
2021/05/28 07:38:09;;;;;;;5.85;3.45;;;17.40;79.70;;;;;;5022879;28;20080;-85
2021/05/28 07:40:35;;;;;;;6.00;2.90;;;17.40;79.90;;;;;;5017391;28;20029;-86
2021/05/28 07:43:01;;;;;;;4.32;3.15;;;17.40;79.40;;;;;;5017148;28;20072;-83
2021/05/28 07:45:27;;;;;;;4.57;2.60;;;17.30;80.10;;;;;;5008778;28;20075;-86
2021/05/28 07:47:53;;;;;;;4.70;3.33;;;17.10;77.80;;;;;;5018464;28;20036;-86
2021/05/28 07:50:19;;;;;;;10.52;3.13;;;17.10;80.40;;;;;;5014185;28;20026;-86
2021/05/28 07:52:45;;;;;;;5.40;3.00;;;16.90;78.90;;;;;;5022871;28;20092;-86
2021/05/28 07:55:11;;;;;;;6.90;3.65;;;17.10;79.20;;;;;;5016265;28;20033;-86
2021/05/28 07:57:37;;;;;;;6.60;3.35;;;17.10;79.20;;;;;;5028205;28;20025;-86
2021/05/28 08:00:05;;;;;;;3.67;3.05;;;17.30;81.50;;;;;;5020219;28;20037;-86
2021/05/28 08:02:32;;;;;;;4.13;3.28;;;17.40;80.00;;;;;;5018370;28;20523;-85
2021/05/28 08:04:57;;;;;;;3.65;2.35;;;17.60;79.00;;;;;;4994133;28;20083;-86
2021/05/28 08:07:23;;;;;;;4.40;2.47;;;17.60;75.80;;;;;;5014794;28;20037;-87
2021/05/28 08:09:49;;;;;;;6.45;2.55;;;17.70;76.40;;;;;;5018528;28;20037;-87
2021/05/28 08:12:16;;;;;;;3.28;1.77;;;17.70;76.00;;;;;;5003358;28;20509;-84
2021/05/28 08:14:42;;;;;;;3.30;1.55;;;17.90;77.10;;;;;;5021792;28;20465;-85
2021/05/28 08:17:08;;;;;;;2.88;1.13;;;18.00;75.70;;;;;;5019213;28;20030;-85
2021/05/28 08:19:33;;;;;;;3.08;1.38;;;18.10;72.50;;;;;;5024090;28;20457;-85
2021/05/28 08:21:59;;;;;;;3.25;1.35;;;18.30;74.10;;;;;;5011805;28;20034;-87
2021/05/28 08:24:25;;;;;;;3.03;1.08;;;18.40;72.50;;;;;;5025897;28;20052;-87
2021/05/28 08:26:51;;;;;;;2.22;1.80;;;18.60;72.10;;;;;;5016728;28;20030;-84
2021/05/28 08:29:17;;;;;;;5.90;1.88;;;18.80;71.00;;;;;;5018787;28;20056;-84
2021/05/28 08:31:43;;;;;;;1.92;1.63;;;18.50;70.60;;;;;;5023031;28;20038;-86
2021/05/28 08:34:09;;;;;;;4.13;1.35;;;18.60;71.50;;;;;;5017432;28;20466;-85
2021/05/28 08:36:34;;;;;;;2.53;1.65;;;18.40;70.00;;;;;;5022659;28;20021;-84
2021/05/28 08:39:00;;;;;;;1.60;0.93;;;18.10;69.90;;;;;;5016924;28;20358;-85
2021/05/28 08:41:26;;;;;;;2.35;1.10;;;17.80;70.30;;;;;;5019592;28;20048;-85
2021/05/28 08:43:52;;;;;;;2.50;1.00;;;18.00;71.40;;;;;;5025584;28;20052;-86
2021/05/28 08:46:20;;;;;;;1.92;1.13;;;18.10;72.50;;;;;;5020513;28;20510;-86
2021/05/28 08:48:50;;;;;;;3.08;1.50;;;18.40;73.50;;;;;;5018201;28;20435;-85
2021/05/28 08:51:16;;;;;;;2.38;1.00;;;18.70;72.20;;;;;;5018578;28;20116;-85
2021/05/28 08:53:41;;;;;;;1.40;0.85;;;18.90;70.60;;;;;;5014225;28;20604;-84
2021/05/28 08:56:10;;;;;;;2.55;1.10;;;18.60;68.10;;;;;;5015616;28;20061;-84
2021/05/28 08:58:36;;;;;;;1.27;0.80;;;18.30;68.80;;;;;;5014340;28;20152;-85
2021/05/28 09:01:03;;;;;;;3.35;1.27;;;18.20;70.50;;;;;;5017512;28;20109;-84
2021/05/28 09:03:30;;;;;;;4.35;1.10;;;18.10;72.60;;;;;;5025246;28;20052;-85
2021/05/28 09:05:59;;;;;;;2.13;1.08;;;18.20;71.80;;;;;;4996178;28;20112;-84
2021/05/28 09:08:27;;;;;;;1.92;1.10;;;18.50;70.40;;;;;;5023460;28;20024;-84
2021/05/28 09:10:56;;;;;;;3.35;1.15;;;18.70;70.80;;;;;;5019610;28;21491;-87
2021/05/28 09:13:26;;;;;;;2.87;0.77;;;18.70;69.70;;;;;;5021039;28;20030;-85
2021/05/28 09:16:06;;;;;;;0.95;0.63;;;18.70;70.40;;;;;;5014796;28;20058;-84
2021/05/28 09:18:45;;;;;;;2.72;0.52;;;18.50;66.90;;;;;;5013765;28;20125;-87
2021/05/28 09:21:13;;;;;;;2.92;0.90;;;18.60;70.00;;;;;;5024334;28;20397;-86
2021/05/28 09:23:38;;;;;;;20.42;3.47;;;18.50;68.30;;;;;;5021864;28;20087;-86
2021/05/28 09:26:07;;;;;;;3.30;0.60;;;18.50;69.00;;;;;;5025501;28;20033;-85
2021/05/28 09:28:45;;;;;;;1.92;0.68;;;18.60;67.30;;;;;;5018532;28;20040;-83
2021/05/28 09:31:14;;;;;;;1.05;0.60;;;18.60;69.30;;;;;;5004445;28;20033;-84
2021/05/28 09:33:44;;;;;;;1.77;0.90;;;18.80;70.30;;;;;;5010798;28;20022;-85
2021/05/28 09:36:23;;;;;;;2.10;0.68;;;18.80;69.00;;;;;;5026870;28;20494;-84
2021/05/28 09:39:03;;;;;;;3.67;0.85;;;18.60;69.90;;;;;;5022370;28;20030;-85
2021/05/28 09:41:41;;;;;;;1.85;0.80;;;18.70;69.00;;;;;;5020197;28;20377;-86
2021/05/28 09:44:19;;;;;;;1.67;0.60;;;18.70;68.70;;;;;;5027178;28;20059;-87
2021/05/28 09:46:57;;;;;;;1.58;0.80;;;18.80;69.60;;;;;;5018631;28;20044;-86
2021/05/28 09:49:27;;;;;;;2.05;0.60;;;19.00;68.00;;;;;;5015602;28;20030;-84
2021/05/28 09:52:16;;;;;;;1.50;0.50;;;19.00;66.30;;;;;;5021204;28;20420;-88
2021/05/28 09:55:00;;;;;;;3.40;0.98;;;19.10;66.50;;;;;;5025380;28;20025;-85
2021/05/28 09:57:30;;;;;;;2.38;0.40;;;18.90;66.00;;;;;;5026648;28;20028;-86
2021/05/28 09:59:56;;;;;;;2.13;0.60;;;18.70;66.90;;;;;;5024859;28;20452;-86
2021/05/28 10:02:29;;;;;;;1.48;0.63;;;18.60;67.70;;;;;;5023131;28;20460;-84
2021/05/28 10:04:57;;;;;;;3.28;1.33;;;18.60;67.80;;;;;;5018691;28;20796;-85
2021/05/28 10:07:25;;;;;;;0.90;0.50;;;18.60;69.30;;;;;;5018647;28;20049;-85
2021/05/28 10:09:55;;;;;;;1.23;0.40;;;18.60;67.30;;;;;;5000015;28;20022;-86
2021/05/28 10:12:25;;;;;;;1.77;0.30;;;18.60;68.00;;;;;;5003795;28;20037;-85
2021/05/28 10:14:51;;;;;;;2.45;0.30;;;18.60;66.80;;;;;;5023695;28;20025;-85
2021/05/28 10:17:18;;;;;;;2.75;0.43;;;18.80;66.80;;;;;;5018881;28;20061;-85
2021/05/28 10:19:46;;;;;;;1.38;0.40;;;19.00;66.30;;;;;;5014265;28;20411;-84
2021/05/28 10:22:13;;;;;;;0.98;0.30;;;18.80;63.00;;;;;;5019526;28;20033;-84
2021/05/28 10:24:39;;;;;;;2.05;0.65;;;18.80;64.70;;;;;;5020166;28;20033;-84
2021/05/28 10:27:06;;;;;;;1.42;0.60;;;18.80;66.90;;;;;;5018991;28;20061;-85
2021/05/28 10:29:32;;;;;;;3.42;0.90;;;18.70;67.50;;;;;;5016680;28;20061;-85
2021/05/28 10:32:09;;;;;;;3.03;0.90;;;18.70;67.80;;;;;;5004193;28;20502;-85
2021/05/28 10:34:55;;;;;;;4.20;0.45;;;18.80;67.60;;;;;;5020253;28;20056;-86
2021/05/28 10:37:28;;;;;;;2.08;0.60;;;18.70;68.80;;;;;;4998531;28;20060;-86
2021/05/28 10:39:54;;;;;;;2.47;1.15;;;18.70;68.60;;;;;;5024410;28;20030;-86
2021/05/28 10:42:19;;;;;;;0.85;0.47;;;18.60;68.80;;;;;;5022064;28;20025;-85
2021/05/28 10:44:45;;;;;;;1.33;0.45;;;18.70;69.90;;;;;;5024486;28;20083;-86
2021/05/28 10:47:14;;;;;;;0.82;0.50;;;18.80;69.60;;;;;;4998146;28;20038;-86
2021/05/28 10:49:50;;;;;;;2.13;0.63;;;19.00;65.80;;;;;;5019750;28;20032;-85
2021/05/28 10:52:17;;;;;;;4.18;0.40;;;19.10;66.40;;;;;;5020800;28;20048;-85
2021/05/28 10:54:51;;;;;;;1.38;0.35;;;19.30;64.40;;;;;;5022336;28;20021;-85
2021/05/28 10:57:30;;;;;;;0.57;0.20;;;19.20;62.70;;;;;;5024207;28;20025;-85
2021/05/28 11:00:07;;;;;;;0.68;0.40;;;19.20;62.20;;;;;;5014478;28;20022;-86
2021/05/28 11:02:47;;;;;;;1.48;0.47;;;19.10;63.40;;;;;;5022757;28;20069;-85
2021/05/28 11:05:18;;;;;;;0.70;0.30;;;18.90;63.00;;;;;;5024079;28;20044;-84
2021/05/28 11:07:46;;;;;;;0.95;0.43;;;18.80;65.70;;;;;;5018690;28;20552;-84
2021/05/28 11:10:25;;;;;;;2.45;0.40;;;18.80;65.70;;;;;;5021742;28;20057;-85
2021/05/28 11:12:53;;;;;;;1.63;0.47;;;19.00;65.90;;;;;;5014643;28;21662;-85
2021/05/28 11:15:26;;;;;;;4.15;0.40;;;19.00;66.70;;;;;;5021139;28;20389;-86
2021/05/28 11:17:53;;;;;;;3.13;0.50;;;19.10;66.80;;;;;;5023801;28;20034;-85
2021/05/28 11:20:24;;;;;;;4.63;0.55;;;18.90;68.10;;;;;;5020051;28;20056;-84
2021/05/28 11:22:51;;;;;;;1.30;0.40;;;18.90;68.70;;;;;;5022956;28;20034;-85
2021/05/28 11:25:20;;;;;;;4.85;0.70;;;18.80;67.80;;;;;;5018421;28;20022;-84
2021/05/28 11:28:12;;;;;;;4.22;0.65;;;18.80;67.90;;;;;;5024314;28;20025;-86
2021/05/28 11:30:45;;;;;;;3.30;0.35;;;18.80;68.10;;;;;;5021524;28;20033;-84
2021/05/28 11:33:32;;;;;;;1.58;0.30;;;18.90;67.60;;;;;;5015659;28;20049;-85
2021/05/28 11:35:58;;;;;;;4.55;0.57;;;18.90;66.80;;;;;;5016313;28;20030;-84
2021/05/28 11:38:36;;;;;;;1.55;0.30;;;18.80;66.60;;;;;;5021994;28;20396;-85
2021/05/28 11:41:02;;;;;;;0.70;0.30;;;18.70;66.80;;;;;;5018420;28;20030;-85
2021/05/28 11:43:34;;;;;;;0.50;0.20;;;18.80;65.90;;;;;;5016433;28;20402;-85
2021/05/28 11:46:00;;;;;;;0.80;0.30;;;18.80;66.70;;;;;;5013208;28;20077;-86
2021/05/28 11:48:28;;;;;;;2.38;0.30;;;18.80;65.00;;;;;;5019467;28;20452;-86
2021/05/28 11:50:56;;;;;;;1.05;0.28;;;18.80;64.30;;;;;;5021088;28;20374;-85
2021/05/28 11:53:22;;;;;;;3.65;0.20;;;19.00;66.90;;;;;;5017861;28;20062;-85
2021/05/28 11:55:53;;;;;;;0.40;0.20;;;19.00;64.10;;;;;;5016707;28;20021;-86
2021/05/28 11:58:21;;;;;;;1.00;0.30;;;19.10;64.30;;;;;;5017158;28;20025;-86
2021/05/28 12:00:49;;;;;;;3.47;0.35;;;19.40;65.80;;;;;;5017319;28;20029;-84
2021/05/28 12:03:15;;;;;;;1.65;0.30;;;19.60;65.10;;;;;;5025774;28;20072;-85
2021/05/28 12:05:46;;;;;;;1.05;0.30;;;19.50;62.20;;;;;;5021161;28;20098;-86
2021/05/28 12:08:18;;;;;;;2.42;0.55;;;19.50;63.00;;;;;;5024759;28;20044;-85
2021/05/28 12:10:45;;;;;;;19.67;1.20;;;19.70;63.00;;;;;;5021862;28;20029;-86
2021/05/28 12:13:14;;;;;;;3.38;0.70;;;19.80;64.40;;;;;;5020295;28;20042;-85
2021/05/28 12:15:45;;;;;;;10.00;0.88;;;19.90;67.10;;;;;;5017448;28;20072;-85
2021/05/28 12:18:14;;;;;;;2.88;0.70;;;19.80;65.80;;;;;;5022116;28;20387;-85
2021/05/28 12:20:40;;;;;;;1.95;0.63;;;19.60;65.30;;;;;;5022285;28;20045;-85
2021/05/28 12:23:18;;;;;;;1.05;0.30;;;19.60;66.60;;;;;;5022709;28;20044;-87
2021/05/28 12:25:43;;;;;;;1.60;0.30;;;19.50;64.90;;;;;;5012783;28;20037;-85
2021/05/28 12:28:15;;;;;;;3.85;1.40;;;19.50;65.10;;;;;;4987237;28;20042;-84
2021/05/28 12:30:43;;;;;;;1.77;0.63;;;19.20;63.60;;;;;;5018629;28;20025;-84
2021/05/28 12:33:09;;;;;;;1.40;0.28;;;18.90;64.10;;;;;;5017780;28;20173;-84
2021/05/28 12:35:36;;;;;;;0.95;0.22;;;18.90;65.40;;;;;;5020136;28;20029;-84
2021/05/28 12:38:01;;;;;;;7.60;0.50;;;18.80;65.50;;;;;;5006604;28;20541;-85
2021/05/28 12:40:27;;;;;;;1.45;0.30;;;18.80;66.40;;;;;;5014817;28;20030;-85
2021/05/28 12:42:58;;;;;;;1.17;0.40;;;18.80;64.60;;;;;;5015222;28;20025;-85
2021/05/28 12:45:38;;;;;;;3.58;0.40;;;18.90;64.00;;;;;;5020217;28;20081;-85
2021/05/28 12:48:04;;;;;;;2.78;0.57;;;19.20;65.10;;;;;;5022504;28;20054;-87
2021/05/28 12:50:35;;;;;;;3.25;0.60;;;19.40;64.10;;;;;;5011334;28;20400;-84
2021/05/28 12:53:03;;;;;;;2.28;0.40;;;19.50;65.00;;;;;;5022857;28;20041;-85